Time;durP1;ratioP1;P1;durP2;ratioP2;P2;SDS_P1;SDS_P2;PMS_P1;PMS_P2;Temp;Humidity;BMP_temperature;BMP_pressure;BME280_temperature;BME280_humidity;BME280_pressure;Samples;Min_cycle;Max_cycle;Signal;HPM_P1;HPM_P2
2022/11/18 00:02:02;;;;;;;;;0.00;0.00;;;;;10.92;71.46;99202.34;5015230;28;45436;-54
2022/11/18 00:04:27;;;;;;;;;1.50;0.00;;;;;10.93;71.57;99201.25;5015120;28;45271;-54
2022/11/18 00:06:52;;;;;;;;;3.00;2.00;;;;;10.82;71.69;99203.84;5014671;28;45912;-54
2022/11/18 00:09:18;;;;;;;;;1.00;1.00;;;;;10.74;71.47;99209.78;5014751;28;45379;-55
2022/11/18 00:14:27;;;;;;;;;3.00;2.00;;;;;10.79;72.38;99226.28;5014773;28;45245;-54
2022/11/18 00:16:58;;;;;;;;;0.75;0.75;;;;;10.84;71.79;99236.53;5014446;28;45435;-53
2022/11/18 00:19:38;;;;;;;;;3.00;2.00;;;;;10.82;72.14;99241.44;5014151;28;45427;-55
2022/11/18 00:22:04;;;;;;;;;1.80;1.80;;;;;10.89;71.34;99244.03;4996663;28;45341;-55
2022/11/18 00:24:30;;;;;;;;;0.40;0.40;;;;;10.84;71.20;99229.13;4997021;28;45676;-54
2022/11/18 00:26:55;;;;;;;;;2.25;2.25;;;;;10.94;71.62;99253.16;5014309;28;46324;-54
2022/11/18 00:29:21;;;;;;;;;2.00;0.00;;;;;10.88;70.89;99239.63;5014534;28;45407;-53
2022/11/18 00:31:47;;;;;;;;;0.75;0.75;;;;;10.91;71.52;99252.81;4996121;28;45330;-53
2022/11/18 00:34:14;;;;;;;;;1.25;1.25;;;;;10.95;71.65;99267.72;4996889;28;45495;-54
2022/11/18 00:36:40;;;;;;;;;1.00;1.00;;;;;10.91;70.85;99261.06;5014330;28;45327;-53
2022/11/18 00:39:05;;;;;;;;;2.80;2.80;;;;;10.95;71.33;99279.53;4999711;28;45370;-52
2022/11/18 00:44:20;;;;;;;;;1.00;1.00;;;;;10.91;71.66;99275.63;4975433;28;45378;-51
2022/11/18 00:46:45;;;;;;;;;2.50;2.00;;;;;10.90;71.50;99284.09;5017319;28;45368;-54
2022/11/18 00:49:11;;;;;;;;;1.50;1.00;;;;;10.91;71.76;99285.78;5017873;28;45623;-52
2022/11/18 00:51:36;;;;;;;;;1.00;1.00;;;;;10.90;71.17;99295.09;5018094;28;45862;-53
2022/11/18 00:54:02;;;;;;;;;0.50;0.00;;;;;10.77;71.92;99299.00;4999948;28;45584;-55
2022/11/18 00:56:27;;;;;;;;;1.75;1.75;;;;;10.72;71.30;99286.00;5017070;28;45485;-54
2022/11/18 00:58:53;;;;;;;;;3.00;2.00;;;;;10.77;71.81;99297.09;4999627;28;45514;-54
2022/11/18 01:01:18;;;;;;;;;2.50;2.50;;;;;10.77;72.25;99307.25;5017774;28;45438;-55
2022/11/18 01:03:44;;;;;;;;;0.00;0.00;;;;;10.61;72.30;99278.72;5017506;28;45443;-55
2022/11/18 01:06:09;;;;;;;;;9.75;6.50;;;;;10.80;71.54;99298.50;4999516;28;47603;-55
2022/11/18 01:08:35;;;;;;;;;6.50;4.00;;;;;10.80;71.43;99301.25;5017093;28;45434;-54
2022/11/18 01:13:18;;;;;;;;;3.75;1.75;;;;;10.59;71.55;99273.47;5017176;28;45413;-52
2022/11/18 01:13:49;;;;;;;;;2.20;1.40;;;;;10.78;72.03;99306.16;4990009;28;45449;-53
2022/11/18 01:16:22;;;;;;;;;2.00;2.00;;;;;10.85;71.71;99309.56;4979602;28;45726;-55
2022/11/18 01:18:47;;;;;;;;;2.00;2.00;;;;;10.82;71.55;99307.31;4979748;28;45324;-51
2022/11/18 01:21:13;;;;;;;;;0.00;0.00;;;;;10.85;71.79;99293.91;4997632;28;45318;-55
2022/11/18 01:23:38;;;;;;;;;0.50;0.50;;;;;10.88;71.44;99306.31;4997568;28;45621;-54
2022/11/18 01:26:05;;;;;;;;;0.00;0.00;;;;;10.91;71.69;99319.56;4996903;28;45353;-55
2022/11/18 01:28:31;;;;;;;;;0.80;0.80;;;;;10.75;71.76;99323.94;4997678;28;45759;-54
2022/11/18 01:31:17;;;;;;;;;1.00;1.00;;;;;10.68;71.97;99315.84;4997313;28;45410;-52
2022/11/18 01:33:43;;;;;;;;;1.40;0.40;;;;;10.76;71.40;99316.53;4997084;28;45704;-51
2022/11/18 01:36:19;;;;;;;;;1.50;0.50;;;;;10.73;71.18;99317.03;4997306;28;45422;-55
2022/11/18 01:38:44;;;;;;;;;1.80;0.20;;;;;10.70;71.13;99326.59;4997208;28;45381;-53
2022/11/18 01:41:10;;;;;;;;;0.25;0.25;;;;;10.68;72.07;99331.50;4997458;28;45670;-54
2022/11/18 01:44:25;;;;;;;;;0.50;0.50;;;;;10.58;71.42;99332.16;4980081;28;45349;-55
2022/11/18 01:46:50;;;;;;;;;0.80;0.80;;;;;10.57;71.96;99327.75;4990850;28;46766;-54
2022/11/18 01:49:16;;;;;;;;;0.00;0.00;;;;;10.64;71.70;99336.66;4978518;28;45704;-53
2022/11/18 01:51:45;;;;;;;;;1.75;0.00;;;;;10.58;71.90;99332.97;4979712;28;45355;-54
2022/11/18 01:54:20;;;;;;;;;1.80;1.00;;;;;10.70;71.71;99349.41;4963940;28;45540;-53
2022/11/18 01:56:52;;;;;;;;;0.00;0.00;;;;;10.73;71.73;99341.75;4979108;28;46343;-55
2022/11/18 01:59:19;;;;;;;;;0.00;0.00;;;;;10.63;71.26;99345.97;4979216;28;45341;-51
2022/11/18 02:01:45;;;;;;;;;1.00;0.00;;;;;10.43;71.63;99314.34;4963785;28;45250;-52
2022/11/18 02:04:10;;;;;;;;;0.00;0.00;;;;;10.44;72.17;99313.25;4980067;28;45294;-55
2022/11/18 02:06:36;;;;;;;;;0.00;0.00;;;;;10.13;71.82;99271.50;4978887;28;46639;-56
2022/11/18 02:09:02;;;;;;;;;0.00;0.00;;;;;10.60;71.85;99356.59;4979194;28;45349;-56
2022/11/18 02:14:11;;;;;;;;;1.40;0.40;;;;;10.55;71.86;99360.06;4993043;28;45381;-55
2022/11/18 02:17:11;;;;;;;;;0.25;0.00;;;;;10.52;72.38;99372.38;4976625;28;46468;-55
2022/11/18 02:19:45;;;;;;;;;2.20;0.00;;;;;10.57;71.86;99368.91;4976367;28;45292;-55
2022/11/18 02:22:25;;;;;;;;;0.00;0.00;;;;;10.48;72.27;99359.38;4996715;28;45360;-54
2022/11/18 02:25:09;;;;;;;;;0.00;0.00;;;;;10.57;72.46;99375.22;4996885;28;45364;-56
2022/11/18 02:27:53;;;;;;;;;0.00;0.00;;;;;10.54;71.87;99372.97;4996635;28;46162;-53
2022/11/18 02:30:19;;;;;;;;;1.00;1.00;;;;;10.36;71.86;99346.53;4996440;28;45304;-52
2022/11/18 02:32:55;;;;;;;;;0.00;0.00;;;;;10.34;72.31;99356.09;4962521;28;45516;-53
2022/11/18 02:35:37;;;;;;;;;1.80;1.00;;;;;10.49;72.22;99385.75;4979059;28;45374;-54
2022/11/18 02:38:06;;;;;;;;;1.00;0.00;;;;;10.51;72.92;99389.09;4964027;28;45694;-56
2022/11/18 02:40:33;;;;;;;;;0.00;0.00;;;;;10.54;72.77;99386.69;4996160;28;45507;-53
2022/11/18 02:43:02;;;;;;;;;1.00;1.00;;;;;10.42;72.43;99388.63;4962506;28;45408;-53
2022/11/18 02:45:27;;;;;;;;;3.00;0.00;;;;;10.33;72.83;99392.78;4962736;28;45295;-53
2022/11/18 02:47:53;;;;;;;;;0.00;0.00;;;;;10.37;72.74;99394.00;4962278;28;45255;-55
2022/11/18 02:50:20;;;;;;;;;0.00;0.00;;;;;9.58;72.74;99276.47;4961921;28;45351;-56
2022/11/18 02:52:46;;;;;;;;;0.80;0.80;;;;;9.74;72.57;99298.69;4978721;28;45328;-56
2022/11/18 02:55:12;;;;;;;;;0.00;0.00;;;;;10.24;72.97;99370.44;4996283;28;45430;-55
2022/11/18 02:57:37;;;;;;;;;0.00;0.00;;;;;10.36;73.14;99403.31;4977845;28;46166;-55
2022/11/18 03:00:03;;;;;;;;;0.00;0.00;;;;;10.27;73.35;99397.34;4977914;28;45405;-56
2022/11/18 03:02:39;;;;;;;;;1.20;0.00;;;;;10.33;72.37;99409.25;4978224;28;45554;-55
2022/11/18 03:05:04;;;;;;;;;0.00;0.00;;;;;10.35;72.67;99410.69;4996296;28;45308;-56
2022/11/18 03:07:31;;;;;;;;;2.00;0.25;;;;;9.60;72.92;99288.00;4995738;28;46534;-53
2022/11/18 03:09:56;;;;;;;;;0.20;0.20;;;;;10.25;73.12;99405.00;4977512;28;45411;-53
2022/11/18 03:13:08;;;;;;;;;0.00;0.00;;;;;10.25;72.71;99411.31;4978244;28;45410;-53
2022/11/18 03:15:43;;;;;;;;;2.60;0.00;;;;;10.23;73.11;99398.91;4999275;28;45985;-53
2022/11/18 03:18:27;;;;;;;;;0.40;0.00;;;;;10.41;72.48;99422.59;4982060;28;47087;-56
2022/11/18 03:21:09;;;;;;;;;0.80;0.80;;;;;10.16;72.23;99380.69;4997761;28;45379;-56
2022/11/18 03:23:40;;;;;;;;;1.60;1.60;;;;;10.39;72.58;99422.84;4981721;28;45477;-55
2022/11/18 03:26:16;;;;;;;;;0.00;0.00;;;;;10.42;72.32;99429.75;4997776;28;45300;-55
2022/11/18 03:28:48;;;;;;;;;2.00;0.60;;;;;10.24;72.52;99401.41;5015451;28;45633;-55
2022/11/18 03:31:19;;;;;;;;;0.00;0.00;;;;;10.42;72.18;99422.38;4997666;28;45397;-55
2022/11/18 03:33:51;;;;;;;;;0.20;0.20;;;;;10.43;71.91;99424.06;4965450;28;45327;-55
2022/11/18 03:36:17;;;;;;;;;1.20;0.00;;;;;10.20;72.37;99393.91;4981218;28;45430;-53
2022/11/18 03:38:47;;;;;;;;;0.00;0.00;;;;;10.41;72.50;99434.41;4981070;28;45878;-51
2022/11/18 03:41:13;;;;;;;;;0.00;0.00;;;;;10.16;72.46;99397.13;5015042;28;45429;-52
2022/11/18 03:43:42;;;;;;;;;0.00;0.00;;;;;10.43;72.19;99435.03;4997420;28;45532;-50
2022/11/18 03:46:20;;;;;;;;;0.80;0.80;;;;;10.43;72.22;99447.91;4997559;28;45365;-54
2022/11/18 03:48:58;;;;;;;;;1.00;0.20;;;;;10.41;72.45;99445.38;4997039;28;48606;-52
2022/11/18 03:51:39;;;;;;;;;1.00;0.00;;;;;10.44;72.18;99453.16;4997637;28;45771;-51
2022/11/18 03:54:19;;;;;;;;;1.60;1.00;;;;;10.44;72.23;99464.13;4998119;28;45353;-55
2022/11/18 03:56:51;;;;;;;;;0.00;0.00;;;;;10.45;72.49;99470.44;4982343;28;45415;-55
2022/11/18 03:59:25;;;;;;;;;0.60;0.60;;;;;10.39;72.15;99463.13;4997034;28;46630;-52
2022/11/18 04:01:51;;;;;;;;;0.00;0.00;;;;;10.42;72.81;99481.88;5014780;28;45157;-53
2022/11/18 04:04:17;;;;;;;;;1.60;0.20;;;;;10.22;72.52;99450.19;4997194;28;45408;-54
2022/11/18 04:07:02;;;;;;;;;1.00;0.00;;;;;10.37;71.91;99471.63;4981005;28;45561;-55
2022/11/18 04:09:36;;;;;;;;;0.00;0.00;;;;;10.30;72.34;99468.19;4982383;28;45509;-55
2022/11/18 04:12:03;;;;;;;;;0.80;0.80;;;;;10.33;72.28;99478.66;4981835;28;45349;-51
2022/11/18 04:14:39;;;;;;;;;1.00;1.00;;;;;10.38;72.43;99488.91;4990015;28;45525;-51
2022/11/18 04:17:09;;;;;;;;;0.60;0.00;;;;;10.15;71.83;99461.28;4981164;28;45353;-55
2022/11/18 04:19:34;;;;;;;;;0.60;0.00;;;;;10.33;72.25;99503.34;4997970;28;46562;-54
2022/11/18 04:22:00;;;;;;;;;0.00;0.00;;;;;10.38;73.18;99511.69;4998256;28;45296;-55
2022/11/18 04:24:25;;;;;;;;;0.00;0.00;;;;;10.37;72.36;99515.53;4964367;28;45250;-54
2022/11/18 04:26:51;;;;;;;;;1.75;1.00;;;;;10.37;72.87;99512.78;4980936;28;45260;-54
2022/11/18 04:29:16;;;;;;;;;0.00;0.00;;;;;9.76;72.34;99420.69;4980597;28;48893;-52
2022/11/18 04:31:42;;;;;;;;;1.00;1.00;;;;;10.38;72.20;99521.81;4997692;28;45345;-51
2022/11/18 04:34:07;;;;;;;;;0.00;0.00;;;;;9.62;72.32;99411.03;4998544;28;45297;-53
2022/11/18 04:36:33;;;;;;;;;1.00;1.00;;;;;10.36;72.78;99526.72;4998390;28;45666;-57
2022/11/18 04:38:58;;;;;;;;;1.00;0.00;;;;;9.80;72.95;99432.00;4998138;28;45406;-56
2022/11/18 04:41:54;;;;;;;;;1.00;1.00;;;;;10.37;72.53;99529.22;4980729;28;45583;-55
2022/11/18 04:44:11;;;;;;;;;1.00;1.00;;;;;10.39;72.17;99528.97;4998154;28;45685;-56
2022/11/18 04:46:40;;;;;;;;;1.40;0.80;;;;;10.37;72.30;99536.63;4998075;28;45313;-53
2022/11/18 04:49:10;;;;;;;;;0.00;0.00;;;;;10.28;72.12;99530.66;4998196;28;46459;-55
2022/11/18 04:51:36;;;;;;;;;2.00;0.00;;;;;10.24;72.19;99533.03;4997699;28;45344;-51
2022/11/18 04:54:02;;;;;;;;;0.00;0.00;;;;;10.20;72.30;99528.28;4980757;28;45274;-54
2022/11/18 04:56:27;;;;;;;;;0.20;0.00;;;;;10.11;72.63;99527.81;4998465;28;45547;-52
2022/11/18 04:58:53;;;;;;;;;0.75;0.75;;;;;10.19;72.17;99540.31;4980410;28;46621;-53
2022/11/18 05:01:18;;;;;;;;;0.25;0.00;;;;;10.26;72.21;99550.09;4980521;28;45306;-52
2022/11/18 05:03:44;;;;;;;;;1.75;0.75;;;;;10.29;72.50;99548.78;4998208;28;45282;-52
2022/11/18 05:06:09;;;;;;;;;0.00;0.00;;;;;9.75;72.69;99464.75;4998229;28;45239;-53
2022/11/18 05:08:35;;;;;;;;;0.25;0.25;;;;;9.99;73.05;99531.38;4963801;28;45418;-52
2022/11/18 05:13:51;;;;;;;;;1.80;1.00;;;;;10.16;73.19;99552.59;4997631;28;45931;-55
2022/11/18 05:16:16;;;;;;;;;1.00;1.00;;;;;10.03;72.43;99537.22;4997891;28;45553;-53
2022/11/18 05:18:42;;;;;;;;;4.00;1.00;;;;;10.11;72.31;99547.00;4980039;28;45327;-52
2022/11/18 05:21:08;;;;;;;;;3.00;1.00;;;;;10.13;73.09;99556.66;4997534;28;45348;-53
2022/11/18 05:23:33;;;;;;;;;1.00;1.00;;;;;10.10;72.60;99557.16;4997631;28;45281;-55
2022/11/18 05:26:09;;;;;;;;;3.00;0.25;;;;;10.08;73.30;99559.28;4980103;28;45301;-52
2022/11/18 05:28:34;;;;;;;;;0.80;0.60;;;;;10.00;72.05;99551.41;4979715;28;47490;-52
2022/11/18 05:31:06;;;;;;;;;1.00;1.00;;;;;10.09;72.78;99569.16;4997761;28;45300;-51
2022/11/18 05:33:31;;;;;;;;;3.60;1.60;;;;;9.96;72.51;99566.66;4997426;28;45478;-51
2022/11/18 05:35:57;;;;;;;;;0.00;0.00;;;;;10.01;72.79;99564.03;5017274;28;45543;-54
2022/11/18 05:38:22;;;;;;;;;1.25;1.25;;;;;9.98;72.89;99554.38;5016856;28;46918;-55
2022/11/18 05:40:48;;;;;;;;;1.00;1.00;;;;;10.04;72.69;99569.06;5017132;28;45371;-55
2022/11/18 05:43:13;;;;;;;;;4.00;1.00;;;;;9.99;72.09;99575.22;5016932;28;45356;-55
2022/11/18 05:45:39;;;;;;;;;1.50;1.50;;;;;9.96;73.38;99580.34;5017358;28;45197;-54
2022/11/18 05:48:05;;;;;;;;;1.00;1.00;;;;;9.96;72.35;99577.59;5016842;28;45313;-55
2022/11/18 05:50:32;;;;;;;;;1.00;1.00;;;;;9.96;72.56;99581.19;4999100;28;45302;-51
2022/11/18 05:52:57;;;;;;;;;0.80;0.00;;;;;10.00;72.61;99589.78;4998837;28;45534;-53
2022/11/18 05:55:24;;;;;;;;;0.00;0.00;;;;;10.00;72.97;99590.63;5017239;28;45648;-55
2022/11/18 05:57:50;;;;;;;;;1.60;0.80;;;;;9.98;72.60;99592.75;4982713;28;46688;-56
2022/11/18 06:00:16;;;;;;;;;3.25;1.00;;;;;9.97;72.70;99590.28;5016656;28;45502;-55
2022/11/18 06:02:42;;;;;;;;;1.20;1.20;;;;;9.97;71.76;99598.50;4998854;28;45372;-52
2022/11/18 06:05:07;;;;;;;;;0.00;0.00;;;;;9.97;71.77;99603.97;4957723;28;45778;-54
2022/11/18 06:07:38;;;;;;;;;2.00;1.00;;;;;9.68;71.97;99563.53;4998551;28;45632;-53
2022/11/18 06:10:04;;;;;;;;;1.20;1.20;;;;;9.94;72.62;99604.44;4998619;28;45464;-54
2022/11/18 06:12:32;;;;;;;;;4.60;2.00;;;;;9.73;72.74;99576.50;5016376;28;45425;-52
2022/11/18 06:15:01;;;;;;;;;2.20;2.00;;;;;9.92;71.65;99617.53;5003384;28;45584;-52
2022/11/18 06:17:31;;;;;;;;;2.00;1.40;;;;;9.82;71.77;99597.00;4978639;28;46740;-53
2022/11/18 06:20:00;;;;;;;;;5.80;1.60;;;;;9.93;72.07;99627.44;4979708;28;45390;-50
2022/11/18 06:22:25;;;;;;;;;1.60;1.00;;;;;9.96;71.85;99629.69;4962637;28;45350;-53
2022/11/18 06:24:51;;;;;;;;;1.00;0.00;;;;;9.97;72.30;99637.69;4996375;28;45554;-51
2022/11/18 06:27:16;;;;;;;;;0.75;0.75;;;;;9.96;72.35;99643.41;4996137;28;46533;-55
2022/11/18 06:29:42;;;;;;;;;2.00;2.00;;;;;9.98;72.50;99646.75;4996615;28;45541;-53
2022/11/18 06:32:10;;;;;;;;;1.00;1.00;;;;;9.98;71.76;99649.50;4996235;28;45423;-58
2022/11/18 06:34:35;;;;;;;;;0.40;0.40;;;;;9.33;72.03;99551.41;4977932;28;45395;-52
2022/11/18 06:37:17;;;;;;;;;2.75;2.00;;;;;9.90;71.73;99657.00;4996225;28;45503;-53
2022/11/18 06:39:43;;;;;;;;;3.20;3.20;;;;;9.60;71.37;99607.66;4978319;28;45915;-53
2022/11/18 06:42:08;;;;;;;;;2.00;1.25;;;;;9.87;71.55;99657.44;4995690;28;45755;-54
2022/11/18 06:44:34;;;;;;;;;2.25;2.25;;;;;9.82;71.17;99645.53;4978578;28;45665;-55
2022/11/18 06:47:01;;;;;;;;;2.50;2.00;;;;;9.57;71.50;99619.97;4996177;28;45992;-55
2022/11/18 06:49:27;;;;;;;;;1.00;1.00;;;;;9.86;71.92;99671.38;4978891;28;45821;-52
2022/11/18 06:51:52;;;;;;;;;1.25;1.25;;;;;9.87;72.06;99670.34;4995659;28;45787;-54
2022/11/18 06:54:18;;;;;;;;;2.25;1.00;;;;;9.87;72.48;99673.06;4996482;28;45558;-53
2022/11/18 06:56:43;;;;;;;;;2.00;1.00;;;;;9.81;71.51;99676.75;4995525;28;46218;-50
2022/11/18 06:59:09;;;;;;;;;4.00;3.00;;;;;9.82;71.71;99673.75;4961893;28;45289;-53
2022/11/18 07:01:36;;;;;;;;;2.00;2.00;;;;;8.99;71.29;99545.56;4995866;28;45261;-54
2022/11/18 07:04:02;;;;;;;;;17.00;14.40;;;;;9.61;71.62;99642.25;4978492;28;46073;-55
2022/11/18 07:06:29;;;;;;;;;6.00;4.25;;;;;9.59;72.47;99656.16;4991810;28;45766;-52
2022/11/18 07:08:55;;;;;;;;;1.40;1.40;;;;;9.67;71.99;99679.66;5013911;28;45311;-53
2022/11/18 07:11:22;;;;;;;;;4.00;1.50;;;;;9.78;72.42;99694.47;4996365;28;45399;-56
2022/11/18 07:13:48;;;;;;;;;2.00;2.00;;;;;9.65;72.49;99700.16;4997749;28;45504;-53
2022/11/18 07:16:15;;;;;;;;;0.25;0.25;;;;;9.67;72.27;99714.44;4997704;28;46470;-55
2022/11/18 07:18:40;;;;;;;;;3.00;1.60;;;;;9.65;71.95;99703.69;5015474;28;45427;-53
2022/11/18 07:21:10;;;;;;;;;2.20;1.60;;;;;9.64;72.28;99707.53;4981760;28;45946;-53
2022/11/18 07:23:36;;;;;;;;;3.60;1.60;;;;;9.71;71.82;99730.19;5014840;28;45554;-54
2022/11/18 07:26:02;;;;;;;;;1.50;1.50;;;;;9.62;72.43;99721.44;5015388;28;45529;-53
2022/11/18 07:28:27;;;;;;;;;3.25;2.50;;;;;9.66;71.56;99731.94;4981495;28;45377;-55
2022/11/18 07:31:02;;;;;;;;;3.50;3.00;;;;;9.61;71.67;99721.69;4997420;28;45244;-54
2022/11/18 07:33:28;;;;;;;;;2.40;2.40;;;;;9.65;71.73;99731.09;4997571;28;45583;-52
2022/11/18 07:35:54;;;;;;;;;1.50;1.50;;;;;9.68;71.81;99738.03;5014964;28;45205;-53
2022/11/18 07:38:19;;;;;;;;;1.75;1.25;;;;;9.63;72.42;99739.56;5015125;28;45291;-53
2022/11/18 07:40:45;;;;;;;;;3.50;2.00;;;;;9.37;71.49;99702.38;5014952;28;45287;-54
2022/11/18 07:43:10;;;;;;;;;2.75;2.00;;;;;9.38;72.47;99712.25;5015419;28;45533;-53
2022/11/18 07:45:35;;;;;;;;;2.75;2.75;;;;;9.61;71.70;99744.44;5014788;28;45430;-54
2022/11/18 07:48:01;;;;;;;;;1.75;1.75;;;;;9.66;72.31;99743.72;4995950;28;45517;-53
2022/11/18 07:50:27;;;;;;;;;1.00;1.00;;;;;9.70;71.69;99746.84;4997447;28;45403;-51
2022/11/18 07:52:55;;;;;;;;;3.00;2.00;;;;;9.67;72.21;99741.84;5014081;28;45614;-53
2022/11/18 07:55:20;;;;;;;;;3.40;2.20;;;;;9.71;72.15;99754.03;5014845;28;46257;-53
2022/11/18 07:57:46;;;;;;;;;13.00;3.00;;;;;9.44;71.56;99721.50;5014824;28;45489;-56
2022/11/18 08:00:12;;;;;;;;;7.00;3.00;;;;;9.71;72.27;99759.50;5014912;28;45577;-56
2022/11/18 08:02:37;;;;;;;;;3.20;2.60;;;;;9.53;71.61;99727.47;5015028;28;45572;-57
2022/11/18 08:05:03;;;;;;;;;2.00;2.00;;;;;9.74;71.99;99770.84;4971632;28;46500;-54
2022/11/18 08:07:29;;;;;;;;;3.75;3.75;;;;;9.72;72.12;99767.47;4982170;28;45645;-53
2022/11/18 08:09:54;;;;;;;;;1.25;1.25;;;;;9.70;71.05;99768.75;4969306;28;45558;-52
2022/11/18 08:12:19;;;;;;;;;4.25;3.50;;;;;9.60;71.69;99775.63;5005975;28;45419;-56
2022/11/18 08:14:45;;;;;;;;;5.00;2.00;;;;;9.64;72.72;99786.97;5005607;28;46472;-55
2022/11/18 08:17:10;;;;;;;;;2.00;2.00;;;;;9.70;72.71;99788.78;4990271;28;45801;-59
2022/11/18 08:19:36;;;;;;;;;3.25;2.75;;;;;9.63;72.11;99780.66;4990490;28;45491;-59
2022/11/18 08:22:01;;;;;;;;;1.00;1.00;;;;;9.41;72.08;99760.28;4973352;28;45446;-60
2022/11/18 08:24:27;;;;;;;;;2.25;1.00;;;;;9.39;72.47;99756.94;4997691;28;45512;-58
2022/11/18 08:26:52;;;;;;;;;4.00;3.25;;;;;9.51;72.86;99787.13;4989291;28;45506;-56
2022/11/18 08:29:18;;;;;;;;;1.00;1.00;;;;;9.51;73.25;99784.38;5010341;28;45494;-58
2022/11/18 08:31:43;;;;;;;;;2.75;2.75;;;;;9.18;72.81;99748.09;5010287;28;45486;-53
2022/11/18 08:34:09;;;;;;;;;1.00;1.00;;;;;9.54;73.14;99795.72;5010040;28;46018;-52
2022/11/18 08:36:35;;;;;;;;;2.50;1.00;;;;;9.52;73.02;99786.91;5003911;28;45808;-53
2022/11/18 08:39:02;;;;;;;;;2.00;2.00;;;;;9.54;72.71;99783.94;5010026;28;45545;-54
2022/11/18 08:41:39;;;;;;;;;3.20;2.40;;;;;9.59;73.75;99787.66;5009637;28;45425;-54
2022/11/18 08:44:04;;;;;;;;;2.40;2.20;;;;;9.47;73.51;99773.06;5009574;28;45762;-55
2022/11/18 08:46:29;;;;;;;;;3.00;1.50;;;;;9.54;73.20;99767.50;5009986;28;45685;-54
2022/11/18 08:48:56;;;;;;;;;2.50;1.00;;;;;9.71;72.63;99795.94;4975754;28;45453;-51
2022/11/18 08:51:21;;;;;;;;;6.20;2.00;;;;;9.51;72.63;99765.22;4990175;28;45449;-56
2022/11/18 08:53:46;;;;;;;;;2.75;1.25;;;;;9.79;72.94;99808.50;4972301;28;46125;-56
2022/11/18 08:56:19;;;;;;;;;1.50;1.50;;;;;9.83;72.71;99808.88;4971659;28;45786;-54
2022/11/18 08:58:44;;;;;;;;;1.20;1.00;;;;;9.88;71.88;99801.63;4974446;28;45452;-53
2022/11/18 09:01:10;;;;;;;;;2.00;2.00;;;;;9.79;72.65;99789.31;4996504;28;45356;-51
2022/11/18 09:03:35;;;;;;;;;2.00;1.25;;;;;9.98;72.27;99813.97;4993221;28;46169;-55
2022/11/18 09:06:14;;;;;;;;;3.50;2.50;;;;;10.01;72.02;99806.13;4993549;28;45458;-52
2022/11/18 09:08:40;;;;;;;;;4.20;2.40;;;;;9.87;71.92;99779.97;4977137;28;45440;-53
2022/11/18 09:11:10;;;;;;;;;2.00;2.00;;;;;9.69;72.47;99767.09;4993404;28;45433;-54
2022/11/18 09:13:36;;;;;;;;;3.00;1.60;;;;;10.01;73.02;99813.50;4991643;28;46257;-52
2022/11/18 09:16:01;;;;;;;;;2.00;1.00;;;;;10.01;73.00;99811.59;4988225;28;46029;-56
2022/11/18 09:18:27;;;;;;;;;2.00;2.00;;;;;9.88;72.24;99796.16;4976319;28;45925;-51
2022/11/18 09:20:59;;;;;;;;;2.00;1.00;;;;;9.97;72.71;99806.81;4993053;28;45913;-54
2022/11/18 09:23:24;;;;;;;;;1.20;1.20;;;;;9.89;72.15;99781.38;4993041;28;45439;-58
2022/11/18 09:26:00;;;;;;;;;3.00;0.25;;;;;10.13;72.74;99825.34;5005783;28;45735;-53
2022/11/18 09:28:25;;;;;;;;;2.60;2.60;;;;;10.13;72.61;99825.34;5013305;28;45483;-55
2022/11/18 09:30:51;;;;;;;;;2.75;1.75;;;;;10.24;72.87;99831.97;4995181;28;45495;-54
2022/11/18 09:33:17;;;;;;;;;1.50;1.50;;;;;10.29;71.92;99834.00;5012849;28;46392;-53
2022/11/18 09:35:43;;;;;;;;;1.75;1.50;;;;;10.02;72.16;99794.09;5012637;28;45395;-52
2022/11/18 09:38:08;;;;;;;;;2.20;1.00;;;;;10.03;72.67;99793.00;4974337;28;45557;-53
2022/11/18 09:40:38;;;;;;;;;3.25;2.00;;;;;10.29;72.05;99839.47;4992406;28;45567;-54
2022/11/18 09:43:10;;;;;;;;;2.40;0.60;;;;;10.27;71.81;99828.75;4958655;28;46206;-54
2022/11/18 09:45:39;;;;;;;;;2.60;1.00;;;;;10.35;72.03;99840.47;4992576;28;45522;-55
2022/11/18 09:48:18;;;;;;;;;1.00;1.00;;;;;10.35;71.71;99830.31;4974559;28;45457;-53
2022/11/18 09:50:44;;;;;;;;;4.00;2.00;;;;;10.42;71.74;99846.72;5012440;28;45478;-52
2022/11/18 09:53:19;;;;;;;;;0.50;0.50;;;;;10.35;71.52;99841.28;5012475;28;46100;-55
2022/11/18 09:55:44;;;;;;;;;2.20;1.00;;;;;10.44;71.31;99842.69;5012393;28;45424;-53
2022/11/18 09:58:20;;;;;;;;;2.50;1.75;;;;;10.43;71.66;99846.50;4994466;28;45421;-53
2022/11/18 10:00:45;;;;;;;;;1.20;0.60;;;;;10.48;71.46;99842.22;4974449;28;45552;-52
2022/11/18 10:03:30;;;;;;;;;4.25;3.50;;;;;10.26;71.21;99802.38;5002595;28;46365;-55
2022/11/18 10:05:56;;;;;;;;;4.00;4.00;;;;;10.48;71.42;99840.31;4975253;28;45465;-52
2022/11/18 10:08:31;;;;;;;;;1.00;1.00;;;;;10.57;71.94;99843.56;4974831;28;45388;-51
2022/11/18 10:11:18;;;;;;;;;0.40;0.40;;;;;10.06;71.29;99771.66;4958335;28;45521;-53
2022/11/18 10:14:05;;;;;;;;;1.40;1.00;;;;;10.70;71.65;99876.31;4971223;28;46509;-55
2022/11/18 10:16:33;;;;;;;;;2.20;1.00;;;;;10.76;70.73;99863.53;4993701;28;45409;-50
2022/11/18 10:19:37;;;;;;;;;2.00;2.00;;;;;10.83;71.10;99861.53;4993689;28;45735;-54
2022/11/18 10:22:13;;;;;;;;;1.80;1.00;;;;;10.88;70.72;99870.97;4873179;28;46009;-51
2022/11/18 10:24:49;;;;;;;;;2.60;1.80;;;;;10.70;70.88;99834.28;4892771;28;45576;-54
2022/11/18 10:27:15;;;;;;;;;1.60;0.00;;;;;10.76;70.10;99838.00;4970421;28;45514;-55
2022/11/18 10:29:42;;;;;;;;;1.25;1.25;;;;;11.04;69.42;99867.53;4993872;28;45524;-52
2022/11/18 10:32:11;;;;;;;;;4.00;1.80;;;;;10.90;69.66;99836.72;4977833;28;45915;-54
2022/11/18 10:34:48;;;;;;;;;0.00;0.00;;;;;11.13;69.83;99857.03;5011025;28;45539;-56
2022/11/18 10:37:33;;;;;;;;;4.40;2.00;;;;;11.02;69.55;99839.47;5004430;28;45520;-55
2022/11/18 10:39:59;;;;;;;;;1.00;0.20;;;;;11.42;69.30;99872.81;4991543;28;45463;-54
2022/11/18 10:42:33;;;;;;;;;0.60;0.60;;;;;11.20;68.87;99826.72;4992223;28;45463;-55
2022/11/18 10:45:21;;;;;;;;;0.60;0.40;;;;;11.69;68.21;99877.81;4976514;28;46263;-53
2022/11/18 10:48:18;;;;;;;;;2.40;0.60;;;;;11.75;67.53;99872.19;5011705;28;45477;-51
2022/11/18 10:50:49;;;;;;;;;1.60;0.60;;;;;11.84;67.54;99874.59;4967650;28;45630;-54
2022/11/18 10:53:35;;;;;;;;;2.20;1.00;;;;;12.10;67.22;99873.22;4974630;28;45518;-54
2022/11/18 10:56:02;;;;;;;;;1.00;0.60;;;;;11.92;65.56;99844.78;4991550;28;45721;-56
2022/11/18 10:58:29;;;;;;;;;2.00;0.80;;;;;12.23;66.15;99876.78;4991291;28;45390;-55
2022/11/18 11:01:18;;;;;;;;;1.00;1.00;;;;;12.36;65.78;99882.00;4973013;28;45612;-54
2022/11/18 11:04:03;;;;;;;;;0.40;0.40;;;;;12.23;65.83;99880.38;4984594;28;45394;-54
2022/11/18 11:06:39;;;;;;;;;1.20;1.00;;;;;12.28;66.29;99868.63;5011344;28;45499;-59
2022/11/18 11:09:14;;;;;;;;;2.40;1.80;;;;;12.39;65.65;99875.16;4992815;28;46675;-56
2022/11/18 11:12:00;;;;;;;;;1.60;0.40;;;;;12.37;65.68;99850.63;5011090;28;45854;-56
2022/11/18 11:14:27;;;;;;;;;1.00;1.00;;;;;12.95;62.92;99860.75;4983262;28;45589;-57
2022/11/18 11:17:01;;;;;;;;;1.20;1.00;;;;;13.25;62.52;99876.13;4973187;28;46030;-56
2022/11/18 11:19:33;;;;;;;;;3.40;2.00;;;;;13.35;62.71;99875.44;4973449;28;45470;-55
2022/11/18 11:21:58;;;;;;;;;1.60;1.00;;;;;14.80;59.10;99866.28;4958041;28;45500;-54
2022/11/18 11:24:25;;;;;;;;;1.00;1.00;;;;;16.25;53.60;99866.38;4991538;28;45900;-51
2022/11/18 11:27:15;;;;;;;;;1.80;1.80;;;;;16.23;53.46;99874.94;4999475;28;45777;-59
2022/11/18 11:30:16;;;;;;;;;2.40;1.00;;;;;15.85;55.56;99880.56;5010636;28;45440;-58
2022/11/18 11:32:53;;;;;;;;;2.00;2.00;;;;;15.08;55.81;99839.44;4978691;28;45384;-53
2022/11/18 11:35:24;;;;;;;;;1.60;1.60;;;;;14.53;56.62;99850.50;5011802;28;45446;-57
2022/11/18 11:37:57;;;;;;;;;2.00;2.00;;;;;14.26;58.61;99856.84;4971503;28;45503;-58
2022/11/18 11:40:29;;;;;;;;;3.00;1.00;;;;;14.07;59.20;99837.88;4973759;28;45570;-56
2022/11/18 11:43:20;;;;;;;;;2.80;2.00;;;;;13.92;60.08;99874.34;4973697;28;45376;-57
2022/11/18 11:46:24;;;;;;;;;3.00;1.20;;;;;13.57;60.52;99872.78;4991139;28;45535;-56
2022/11/18 11:48:58;;;;;;;;;1.60;1.00;;;;;13.29;60.34;99872.59;4990481;28;46699;-56
2022/11/18 11:51:35;;;;;;;;;3.60;2.60;;;;;13.17;61.71;99877.38;5000643;28;45513;-56
2022/11/18 11:54:22;;;;;;;;;2.00;1.40;;;;;13.01;60.91;99871.63;4991342;28;45585;-57
2022/11/18 11:56:52;;;;;;;;;1.00;1.00;;;;;13.06;62.11;99872.75;4958761;28;45878;-56
2022/11/18 11:59:28;;;;;;;;;1.00;1.00;;;;;13.17;61.45;99874.63;5010363;28;45749;-58
2022/11/18 12:01:58;;;;;;;;;2.80;2.00;;;;;13.31;61.76;99877.03;4999612;28;45574;-58